Time;durP1;ratioP1;P1;durP2;ratioP2;P2;SDS_P1;SDS_P2;PMS_P1;PMS_P2;Temp;Humidity;BMP_temperature;BMP_pressure;BME280_temperature;BME280_humidity;BME280_pressure;Samples;Min_cycle;Max_cycle;Signal;HPM_P1;HPM_P2
2023/03/26 00:01:28;;;;;;;8.10;6.93;;;;;;;14.07;71.39;96244.56;4910800;29;20772;-76
2023/03/26 00:03:56;;;;;;;14.70;7.57;;;;;;;14.11;71.52;96233.00;4912353;29;20189;-80
2023/03/26 00:06:35;;;;;;;8.67;6.43;;;;;;;14.13;71.42;96238.06;4910508;29;20620;-79
2023/03/26 00:09:03;;;;;;;7.50;5.90;;;;;;;14.09;71.52;96240.09;4911754;29;20199;-76
2023/03/26 00:11:30;;;;;;;7.30;6.50;;;;;;;13.85;72.83;96234.00;4912186;29;20193;-75
2023/03/26 00:13:57;;;;;;;8.93;7.27;;;;;;;13.87;73.00;96243.38;4910752;29;20193;-74
2023/03/26 00:16:30;;;;;;;11.00;7.90;;;;;;;13.98;72.37;96245.22;4912352;29;20793;-77
2023/03/26 00:18:58;;;;;;;12.10;8.73;;;;;;;14.00;73.35;96240.72;4914125;29;20214;-76
2023/03/26 00:21:27;;;;;;;10.13;8.43;;;;;;;14.01;74.20;96250.22;4921133;29;20278;-77
2023/03/26 00:24:03;;;;;;;10.97;9.13;;;;;;;13.24;78.63;96229.69;4896312;29;20255;-75
2023/03/26 00:26:32;;;;;;;12.33;9.37;;;;;;;12.74;82.14;96230.50;4895772;29;20300;-75
2023/03/26 00:29:02;;;;;;;10.30;8.97;;;;;;;12.85;82.55;96234.97;4913886;29;20279;-79
2023/03/26 00:31:30;;;;;;;10.50;8.87;;;;;;;12.91;81.66;96226.78;4911051;29;20206;-80
2023/03/26 00:33:57;;;;;;;14.00;9.73;;;;;;;13.05;82.15;96222.34;4895400;29;20192;-75
2023/03/26 00:36:25;;;;;;;11.10;9.70;;;;;;;13.30;81.61;96231.88;4911867;29;20252;-80
2023/03/26 00:38:53;;;;;;;13.93;11.20;;;;;;;13.21;82.62;96235.09;4911990;29;20212;-79
2023/03/26 00:41:24;;;;;;;13.23;10.77;;;;;;;13.31;82.77;96232.72;4894599;29;20264;-78
2023/03/26 00:43:58;;;;;;;14.30;11.50;;;;;;;13.33;83.07;96236.03;4901174;29;20219;-75
2023/03/26 00:46:29;;;;;;;13.07;11.33;;;;;;;13.41;82.64;96231.13;4921707;29;20194;-76
2023/03/26 00:48:59;;;;;;;17.10;12.13;;;;;;;13.37;82.36;96235.72;4893751;29;20207;-79
2023/03/26 00:51:27;;;;;;;15.90;12.33;;;;;;;13.43;82.80;96244.84;4895272;29;21061;-80
2023/03/26 00:53:56;;;;;;;16.83;12.07;;;;;;;13.22;83.85;96254.13;4893864;29;20692;-83
2023/03/26 00:56:23;;;;;;;14.47;11.77;;;;;;;13.12;84.31;96258.31;4913303;29;20189;-81
2023/03/26 00:58:50;;;;;;;13.03;11.47;;;;;;;13.11;83.15;96256.66;4911702;29;20609;-83
2023/03/26 01:01:26;;;;;;;14.50;11.13;;;;;;;12.95;84.25;96249.84;4893574;29;20596;-77
2023/03/26 01:03:59;;;;;;;12.83;10.57;;;;;;;12.96;83.11;96238.50;4911722;29;20641;-83
2023/03/26 01:06:34;;;;;;;11.57;9.90;;;;;;;12.75;81.86;96276.34;4893827;29;20225;-82
2023/03/26 01:09:33;;;;;;;10.83;8.60;;;;;;;12.61;78.90;96275.59;4911643;29;20196;-79
2023/03/26 01:12:05;;;;;;;11.00;8.23;;;;;;;12.56;76.77;96265.50;4907448;29;20727;-82
2023/03/26 01:14:32;;;;;;;9.10;7.03;;;;;;;12.53;75.82;96250.13;4910390;29;20586;-75
2023/03/26 01:17:02;;;;;;;7.70;6.13;;;;;;;12.95;73.90;96267.22;4896335;29;20734;-79
2023/03/26 01:19:36;;;;;;;7.97;5.93;;;;;;;13.18;72.39;96263.09;4914076;29;20201;-81
2023/03/26 01:22:08;;;;;;;6.63;5.47;;;;;;;13.43;71.36;96269.09;4915328;29;20239;-79
2023/03/26 01:24:36;;;;;;;5.90;5.30;;;;;;;13.57;69.93;96281.16;4914691;29;20286;-75
2023/03/26 01:27:32;;;;;;;7.97;5.70;;;;;;;13.70;71.25;96303.59;4898422;29;20237;-82
2023/03/26 01:30:21;;;;;;;9.03;6.20;;;;;;;13.54;73.60;96270.97;4917573;29;20220;-82
2023/03/26 01:33:20;;;;;;;8.17;5.63;;;;;;;13.27;74.16;96278.88;4914949;29;20202;-81
2023/03/26 01:35:50;;;;;;;8.10;4.60;;;;;;;13.05;75.37;96268.28;4897993;29;20217;-81
2023/03/26 01:38:45;;;;;;;4.50;3.97;;;;;;;12.88;74.78;96256.38;4898371;29;20661;-77
2023/03/26 01:41:31;;;;;;;4.10;3.70;;;;;;;13.03;74.46;96275.31;4913396;29;20227;-83
2023/03/26 01:44:20;;;;;;;6.17;3.50;;;;;;;13.06;74.65;96251.75;4915179;29;20198;-82
2023/03/26 01:46:48;;;;;;;3.13;2.90;;;;;;;12.94;73.59;96239.56;4897943;29;20259;-84
2023/03/26 01:49:17;;;;;;;3.10;2.80;;;;;;;12.91;73.47;96245.81;4914262;29;20204;-82
2023/03/26 01:51:44;;;;;;;2.93;2.70;;;;;;;12.85;73.02;96248.81;4915132;29;20605;-82
2023/03/26 01:54:15;;;;;;;3.60;2.47;;;;;;;12.83;72.51;96253.28;4913980;29;20331;-82
2023/03/26 01:57:04;;;;;;;3.23;2.90;;;;;;;12.91;72.21;96260.56;4900198;29;20698;-83
2023/03/26 01:59:49;;;;;;;3.47;2.10;;;;;;;12.94;70.90;96263.78;4900697;29;20192;-82
2023/03/26 02:02:26;;;;;;;2.30;2.10;;;;;;;13.00;70.58;96252.97;4917438;29;20231;-80
2023/03/26 02:05:04;;;;;;;2.17;1.97;;;;;;;13.10;69.79;96247.19;4899440;29;20252;-83
2023/03/26 02:07:43;;;;;;;3.43;2.07;;;;;;;13.03;70.17;96249.31;4913041;29;20196;-80
2023/03/26 02:10:19;;;;;;;2.20;2.00;;;;;;;13.05;70.40;96253.53;4897495;29;20577;-84
2023/03/26 02:12:47;;;;;;;2.73;2.00;;;;;;;13.10;70.51;96237.63;4897400;29;20215;-82
2023/03/26 02:15:14;;;;;;;2.30;2.10;;;;;;;13.04;71.59;96283.03;4897292;29;20201;-80
2023/03/26 02:17:41;;;;;;;2.27;2.00;;;;;;;13.14;70.31;96298.88;4898140;29;20937;-84
2023/03/26 02:20:11;;;;;;;3.00;2.37;;;;;;;13.25;70.54;96298.13;4914115;29;20669;-80
2023/03/26 02:22:44;;;;;;;2.93;2.57;;;;;;;13.31;70.00;96295.13;4915351;29;20244;-82
2023/03/26 02:25:17;;;;;;;2.43;2.20;;;;;;;13.37;70.44;96312.91;4897875;29;20187;-81
2023/03/26 02:27:45;;;;;;;2.87;2.57;;;;;;;13.34;70.80;96310.50;4895612;29;20190;-81
2023/03/26 02:30:16;;;;;;;3.37;2.60;;;;;;;13.36;72.33;96309.47;4896786;29;20200;-83
2023/03/26 02:32:46;;;;;;;4.50;3.03;;;;;;;13.19;74.25;96322.75;4899667;29;20212;-82
2023/03/26 02:35:13;;;;;;;4.00;3.17;;;;;;;13.08;75.22;96336.47;4897188;29;20278;-76
2023/03/26 02:37:40;;;;;;;4.70;3.63;;;;;;;12.97;75.33;96318.16;4879714;29;20671;-82
2023/03/26 02:40:16;;;;;;;4.37;3.93;;;;;;;12.74;75.96;96298.06;4896921;29;20704;-82
2023/03/26 02:42:46;;;;;;;5.73;4.37;;;;;;;12.82;76.17;96329.56;4896687;29;20319;-82
2023/03/26 02:45:13;;;;;;;5.70;4.60;;;;;;;12.85;76.11;96324.16;4895907;29;20198;-83
2023/03/26 02:48:01;;;;;;;5.30;4.10;;;;;;;12.68;74.58;96280.28;4920283;29;20269;-76
2023/03/26 02:50:53;;;;;;;3.77;3.37;;;;;;;12.93;73.99;96321.91;4905206;29;20208;-80
2023/03/26 02:53:40;;;;;;;6.07;4.13;;;;;;;12.97;74.05;96317.31;4919189;29;20186;-82
2023/03/26 02:56:27;;;;;;;4.47;3.30;;;;;;;12.90;73.18;96311.69;4887813;29;20276;-80
2023/03/26 02:59:33;;;;;;;4.80;3.57;;;;;;;12.93;74.12;96311.50;4854060;29;20211;-84
2023/03/26 03:02:28;;;;;;;3.47;2.90;;;;;;;12.87;72.44;96306.72;4833207;29;20361;-81
2023/03/26 03:05:04;;;;;;;1.73;1.63;;;;;;;12.76;69.10;96293.59;4880691;29;20199;-84
2023/03/26 03:07:36;;;;;;;2.80;1.63;;;;;;;12.94;68.22;96310.56;4895861;29;20232;-82
2023/03/26 03:10:07;;;;;;;2.57;1.30;;;;;;;12.85;67.72;96294.75;4897714;29;20247;-77
2023/03/26 03:13:00;;;;;;;1.67;1.30;;;;;;;12.99;66.52;96307.66;4908506;29;20271;-74
2023/03/26 03:15:27;;;;;;;1.20;1.10;;;;;;;12.94;65.63;96322.75;4899843;29;20203;-79
2023/03/26 03:17:54;;;;;;;1.17;1.10;;;;;;;12.91;64.35;96305.56;4913748;29;20192;-81
2023/03/26 03:20:22;;;;;;;1.10;1.00;;;;;;;12.93;65.02;96324.50;4894896;29;20629;-82
2023/03/26 03:22:49;;;;;;;1.63;1.30;;;;;;;12.72;64.83;96286.09;4913594;29;20283;-82
2023/03/26 03:25:16;;;;;;;1.30;1.20;;;;;;;12.95;64.91;96317.44;4895062;29;20579;-76
2023/03/26 03:27:46;;;;;;;1.80;1.10;;;;;;;12.85;64.91;96316.38;4913581;29;20665;-76
2023/03/26 03:30:14;;;;;;;0.90;0.90;;;;;;;12.74;64.31;96305.00;4897315;29;20206;-76
2023/03/26 03:33:03;;;;;;;0.80;0.80;;;;;;;12.69;64.71;96320.94;4894860;29;20257;-80
2023/03/26 03:35:30;;;;;;;1.23;1.13;;;;;;;12.61;63.82;96298.97;4895941;29;20192;-75
2023/03/26 03:37:59;;;;;;;0.83;0.83;;;;;;;12.76;64.18;96306.56;4894527;29;20277;-78
2023/03/26 03:40:28;;;;;;;1.53;1.10;;;;;;;12.63;64.63;96300.50;4896136;29;20606;-76
2023/03/26 03:42:56;;;;;;;1.90;1.43;;;;;;;12.71;63.57;96306.06;4895186;29;20239;-79
2023/03/26 03:45:32;;;;;;;1.20;1.07;;;;;;;12.67;63.61;96320.19;4898763;29;20193;-81
2023/03/26 03:48:10;;;;;;;0.87;0.87;;;;;;;12.62;63.00;96317.06;4914803;29;20186;-81
2023/03/26 03:50:41;;;;;;;3.27;0.90;;;;;;;12.53;63.91;96304.66;4930350;29;20259;-79
2023/03/26 03:53:24;;;;;;;1.33;0.90;;;;;;;12.59;63.73;96314.63;4914392;29;20199;-80
2023/03/26 03:55:55;;;;;;;1.30;1.00;;;;;;;12.52;64.47;96307.34;4913552;29;20190;-79
2023/03/26 03:58:29;;;;;;;1.93;1.23;;;;;;;12.42;63.80;96296.75;4913910;29;20576;-78
2023/03/26 04:01:04;;;;;;;1.07;0.97;;;;;;;12.48;64.09;96309.31;4944823;29;20193;-77
2023/03/26 04:03:56;;;;;;;2.50;1.20;;;;;;;12.36;64.41;96285.91;4913155;29;20193;-76
2023/03/26 04:06:34;;;;;;;1.30;1.20;;;;;;;12.50;64.76;96327.41;4916644;29;20223;-77
2023/03/26 04:09:01;;;;;;;2.60;1.37;;;;;;;12.38;65.19;96307.41;4914089;29;20586;-75
2023/03/26 04:11:28;;;;;;;1.50;1.40;;;;;;;12.41;65.32;96321.03;4913370;29;20202;-78
2023/03/26 04:14:12;;;;;;;1.50;1.40;;;;;;;12.25;66.30;96317.75;4914397;29;20209;-80
2023/03/26 04:17:04;;;;;;;3.37;1.50;;;;;;;12.10;65.90;96282.38;4912751;29;20208;-74
2023/03/26 04:19:34;;;;;;;2.77;1.60;;;;;;;12.30;65.48;96323.50;4914118;29;20192;-75
2023/03/26 04:22:01;;;;;;;2.07;1.87;;;;;;;12.25;66.38;96316.00;4913394;29;20720;-80
2023/03/26 04:24:37;;;;;;;1.40;1.30;;;;;;;12.42;65.16;96329.66;4914115;29;20684;-78
2023/03/26 04:27:30;;;;;;;2.00;1.90;;;;;;;12.46;64.96;96337.16;4919003;29;20281;-74
2023/03/26 04:30:15;;;;;;;1.60;1.50;;;;;;;12.47;64.65;96335.41;4913133;29;20193;-77
2023/03/26 04:32:47;;;;;;;2.33;2.00;;;;;;;12.51;63.98;96327.28;4913960;29;20659;-79
2023/03/26 04:35:17;;;;;;;2.20;2.00;;;;;;;12.55;63.57;96326.16;4914348;29;20558;-76
2023/03/26 04:37:49;;;;;;;2.70;1.90;;;;;;;12.55;63.34;96331.34;4897741;29;20193;-79
2023/03/26 04:40:21;;;;;;;2.10;1.90;;;;;;;12.59;63.36;96334.59;4897951;29;20236;-79
2023/03/26 04:43:01;;;;;;;1.97;1.87;;;;;;;12.56;63.58;96345.19;4912213;29;20319;-75
2023/03/26 04:45:47;;;;;;;2.17;1.97;;;;;;;12.55;63.33;96343.53;4931380;29;20271;-77
2023/03/26 04:48:15;;;;;;;2.00;1.80;;;;;;;12.63;63.75;96351.66;4913784;29;20297;-77
2023/03/26 04:50:44;;;;;;;2.20;1.63;;;;;;;12.74;62.86;96339.63;4911586;29;20213;-78
2023/03/26 04:53:15;;;;;;;1.73;1.63;;;;;;;12.80;62.11;96349.63;4917831;29;20204;-79
2023/03/26 04:56:14;;;;;;;2.50;1.47;;;;;;;12.82;61.40;96360.75;4899595;29;20202;-79
2023/03/26 04:59:04;;;;;;;1.67;1.37;;;;;;;12.90;60.45;96340.28;4890292;29;20254;-77
2023/03/26 05:01:37;;;;;;;1.73;1.20;;;;;;;12.90;60.28;96323.88;4900938;29;20217;-81
2023/03/26 05:04:05;;;;;;;1.50;1.40;;;;;;;12.99;59.12;96362.22;4909515;29;20202;-83
2023/03/26 05:06:33;;;;;;;2.13;1.40;;;;;;;13.00;59.43;96359.53;4917783;29;20208;-79
2023/03/26 05:09:07;;;;;;;2.57;1.10;;;;;;;12.85;58.29;96337.16;4914896;29;20198;-81
2023/03/26 05:11:55;;;;;;;2.60;1.20;;;;;;;13.02;57.53;96368.06;4913106;29;20357;-78
2023/03/26 05:14:22;;;;;;;1.40;1.10;;;;;;;13.12;57.08;96372.69;4913154;29;20582;-81
2023/03/26 05:16:52;;;;;;;0.90;0.90;;;;;;;13.12;57.50;96367.50;4925835;29;20196;-79
2023/03/26 05:19:19;;;;;;;1.67;1.00;;;;;;;13.17;57.23;96370.63;4920042;29;20728;-77
2023/03/26 05:21:46;;;;;;;1.37;1.27;;;;;;;13.02;56.13;96352.47;4913724;29;20626;-74
2023/03/26 05:24:13;;;;;;;1.50;1.07;;;;;;;13.22;54.83;96390.19;4922161;29;20264;-81
2023/03/26 05:26:41;;;;;;;1.23;1.13;;;;;;;13.11;55.82;96391.84;4901002;29;20244;-74
2023/03/26 05:29:08;;;;;;;1.93;0.97;;;;;;;13.16;56.49;96400.16;4902033;29;20660;-73
2023/03/26 05:31:40;;;;;;;1.70;1.30;;;;;;;13.08;56.36;96411.88;4901430;29;20254;-77
2023/03/26 05:34:07;;;;;;;1.53;1.30;;;;;;;13.16;56.37;96410.53;4917388;29;20215;-81
2023/03/26 05:36:34;;;;;;;1.47;1.30;;;;;;;13.09;56.78;96399.72;4918241;29;20199;-76
2023/03/26 05:39:29;;;;;;;3.67;1.70;;;;;;;13.27;56.91;96414.09;4898159;29;20335;-75
2023/03/26 05:42:19;;;;;;;1.63;1.20;;;;;;;13.36;56.05;96410.03;4917198;29;20236;-75
2023/03/26 05:45:09;;;;;;;2.20;1.53;;;;;;;13.33;56.05;96392.06;4901308;29;20203;-80
2023/03/26 05:47:37;;;;;;;1.40;1.30;;;;;;;13.31;55.24;96389.56;4898200;29;20279;-76
2023/03/26 05:50:06;;;;;;;2.10;1.30;;;;;;;13.56;55.38;96406.97;4900492;29;20668;-77
2023/03/26 05:52:36;;;;;;;1.43;1.33;;;;;;;13.63;54.67;96405.59;4897107;29;20202;-80
2023/03/26 05:55:21;;;;;;;2.00;1.40;;;;;;;13.65;55.42;96411.53;4901462;29;20777;-77
2023/03/26 05:58:17;;;;;;;1.53;1.30;;;;;;;13.54;52.99;96401.03;4929317;29;20207;-76
2023/03/26 06:01:07;;;;;;;1.93;1.50;;;;;;;13.64;53.20;96417.69;4895193;29;20698;-77
2023/03/26 06:04:03;;;;;;;1.60;1.33;;;;;;;13.62;53.18;96409.16;4864646;29;20239;-80
2023/03/26 06:06:36;;;;;;;1.30;1.20;;;;;;;13.51;52.03;96375.22;4916469;29;20209;-72
2023/03/26 06:09:03;;;;;;;1.73;1.23;;;;;;;13.71;52.53;96398.09;4931958;29;20192;-79
2023/03/26 06:11:31;;;;;;;1.23;1.03;;;;;;;13.89;52.77;96400.28;4916322;29;20197;-79
2023/03/26 06:14:00;;;;;;;3.17;1.50;;;;;;;14.06;51.69;96409.53;4914523;29;20325;-75
2023/03/26 06:16:28;;;;;;;1.40;1.30;;;;;;;13.97;52.66;96404.97;4916218;29;20764;-78
2023/03/26 06:19:05;;;;;;;3.70;1.40;;;;;;;14.06;52.41;96430.34;4915256;29;20228;-78
2023/03/26 06:21:48;;;;;;;3.83;1.80;;;;;;;14.28;52.73;96427.09;4894324;29;20676;-74
2023/03/26 06:24:22;;;;;;;1.87;1.40;;;;;;;14.30;51.38;96435.66;4897291;29;20209;-77
2023/03/26 06:27:03;;;;;;;2.00;1.40;;;;;;;14.38;51.82;96455.03;4879765;29;20327;-76
2023/03/26 06:29:30;;;;;;;1.60;1.47;;;;;;;14.28;50.10;96451.38;4914044;29;20225;-75
2023/03/26 06:32:16;;;;;;;1.90;1.37;;;;;;;14.23;50.86;96445.66;4913681;29;20712;-77
2023/03/26 06:35:01;;;;;;;1.87;1.50;;;;;;;14.09;51.95;96448.38;4911081;29;20248;-82
2023/03/26 06:37:29;;;;;;;1.60;1.50;;;;;;;14.09;52.74;96463.16;4912625;29;20193;-76
2023/03/26 06:40:00;;;;;;;1.70;1.60;;;;;;;14.06;52.60;96435.56;4911138;29;20526;-76
2023/03/26 06:42:56;;;;;;;2.60;1.57;;;;;;;14.15;53.11;96454.94;4830192;29;20335;-81
2023/03/26 06:45:51;;;;;;;4.40;1.70;;;;;;;13.93;52.53;96426.91;4913391;29;20205;-81
2023/03/26 06:48:41;;;;;;;2.07;1.60;;;;;;;13.93;51.42;96426.09;4911857;29;20217;-81
2023/03/26 06:51:42;;;;;;;2.03;1.67;;;;;;;14.22;52.27;96432.75;4895625;29;20204;-79
2023/03/26 06:54:38;;;;;;;3.37;1.63;;;;;;;14.24;51.08;96425.66;4907311;29;20205;-77
2023/03/26 06:57:14;;;;;;;4.13;1.70;;;;;;;14.14;51.58;96428.03;4901466;29;20592;-73
2023/03/26 06:59:41;;;;;;;2.30;1.83;;;;;;;14.42;49.79;96425.22;4892999;29;20206;-76
2023/03/26 07:02:29;;;;;;;2.30;1.50;;;;;;;14.35;51.27;96423.13;4893545;29;20647;-75
2023/03/26 07:05:16;;;;;;;3.40;1.40;;;;;;;14.30;49.57;96436.47;4899898;29;20205;-81
2023/03/26 07:08:02;;;;;;;1.97;1.30;;;;;;;14.34;49.70;96432.72;4920479;29;20288;-75
2023/03/26 07:10:47;;;;;;;1.60;1.37;;;;;;;14.63;50.27;96426.28;4931463;29;20193;-79
2023/03/26 07:13:38;;;;;;;1.63;1.40;;;;;;;14.73;46.64;96439.50;4926072;29;20213;-76
2023/03/26 07:16:44;;;;;;;2.37;1.63;;;;;;;14.71;48.30;96432.72;4837952;29;20784;-78
2023/03/26 07:19:29;;;;;;;1.53;1.30;;;;;;;14.96;47.72;96427.41;4837657;29;20198;-78
2023/03/26 07:21:57;;;;;;;1.00;0.90;;;;;;;15.06;43.26;96463.16;4861321;29;20218;-80
2023/03/26 07:24:56;;;;;;;3.43;1.60;;;;;;;14.97;44.45;96447.31;4894559;29;20222;-79
2023/03/26 07:28:10;;;;;;;1.30;1.00;;;;;;;15.08;41.28;96463.03;4880799;29;20216;-78
2023/03/26 07:31:06;;;;;;;2.13;0.97;;;;;;;14.99;40.22;96459.31;4891863;29;20225;-79
2023/03/26 07:34:06;;;;;;;1.63;1.13;;;;;;;14.96;40.71;96474.34;4892563;29;20207;-78
2023/03/26 07:36:50;;;;;;;3.37;1.30;;;;;;;15.13;41.80;96460.91;4892638;29;20195;-81
2023/03/26 07:39:40;;;;;;;1.83;1.10;;;;;;;15.12;40.23;96485.34;4890969;29;20206;-82
2023/03/26 07:42:30;;;;;;;1.43;1.20;;;;;;;15.19;40.65;96476.09;4885793;29;20238;-79
2023/03/26 07:45:38;;;;;;;1.70;1.23;;;;;;;15.20;41.04;96468.19;4878740;29;20199;-81
2023/03/26 07:48:48;;;;;;;2.03;1.30;;;;;;;15.31;39.48;96485.66;4833659;29;20197;-80
2023/03/26 07:51:31;;;;;;;1.37;1.27;;;;;;;15.55;39.83;96478.66;4835568;29;20696;-79
2023/03/26 07:54:10;;;;;;;5.27;1.70;;;;;;;15.69;40.49;96475.00;4873994;29;20592;-79
2023/03/26 07:57:12;;;;;;;1.80;1.13;;;;;;;15.55;39.06;96470.00;4889968;29;20569;-74
2023/03/26 08:00:10;;;;;;;1.73;1.17;;;;;;;15.41;40.17;96468.38;4892523;29;20196;-74
2023/03/26 08:03:01;;;;;;;2.43;1.03;;;;;;;15.48;39.75;96471.41;4892630;29;20307;-73
2023/03/26 08:05:57;;;;;;;1.30;1.00;;;;;;;15.60;38.34;96462.66;4891322;29;20218;-76
2023/03/26 08:08:47;;;;;;;0.80;0.80;;;;;;;15.83;36.12;96459.13;4876345;29;20191;-74
2023/03/26 08:11:44;;;;;;;3.33;1.40;;;;;;;15.82;35.29;96450.50;4892855;29;20200;-76
2023/03/26 08:14:42;;;;;;;1.70;1.20;;;;;;;15.95;36.19;96447.78;4892020;29;20660;-78
2023/03/26 08:17:34;;;;;;;2.60;1.47;;;;;;;16.21;37.24;96444.81;4893677;29;20672;-79
2023/03/26 08:20:25;;;;;;;2.90;1.90;;;;;;;16.33;36.12;96445.66;4892437;29;20200;-77
2023/03/26 08:23:04;;;;;;;1.27;1.00;;;;;;;16.39;36.09;96444.31;4905836;29;20227;-78
2023/03/26 08:26:04;;;;;;;1.93;0.97;;;;;;;16.32;36.41;96437.94;4891620;29;20227;-80
2023/03/26 08:28:40;;;;;;;3.10;1.00;;;;;;;16.33;36.40;96444.81;4892069;29;20206;-77
2023/03/26 08:31:10;;;;;;;1.23;0.90;;;;;;;16.25;36.19;96443.63;4892036;29;20223;-76
2023/03/26 08:33:39;;;;;;;6.13;1.37;;;;;;;16.27;35.39;96452.19;4891602;29;20661;-81
2023/03/26 08:36:08;;;;;;;4.23;1.10;;;;;;;16.34;33.87;96447.31;4889641;29;20587;-75
2023/03/26 08:38:35;;;;;;;0.87;0.87;;;;;;;16.09;34.05;96410.97;4890576;29;20888;-77
2023/03/26 08:41:11;;;;;;;1.67;0.90;;;;;;;16.37;33.82;96448.84;4891200;29;20210;-77
2023/03/26 08:43:56;;;;;;;3.03;1.17;;;;;;;16.57;34.18;96442.94;4891976;29;20230;-74
2023/03/26 08:46:29;;;;;;;2.53;1.30;;;;;;;16.58;32.92;96444.59;4894039;29;20278;-78
2023/03/26 08:49:45;;;;;;;2.03;0.97;;;;;;;16.43;33.75;96446.59;4908919;29;20210;-77
2023/03/26 08:53:12;;;;;;;2.50;1.00;;;;;;;16.44;33.75;96447.41;4908981;29;20213;-79
2023/03/26 08:56:00;;;;;;;1.43;0.90;;;;;;;16.53;33.44;96442.31;4904267;29;20245;-79
2023/03/26 08:59:30;;;;;;;2.47;1.00;;;;;;;16.43;33.56;96448.34;4917657;29;20195;-81
2023/03/26 09:02:17;;;;;;;2.73;1.20;;;;;;;16.46;34.21;96445.53;4912006;29;20216;-75
2023/03/26 09:04:59;;;;;;;1.50;1.23;;;;;;;16.66;33.99;96447.41;4910428;29;20258;-76
2023/03/26 09:07:54;;;;;;;2.13;1.00;;;;;;;16.72;34.20;96447.78;4859131;29;20219;-79
2023/03/26 09:10:49;;;;;;;1.30;0.80;;;;;;;16.74;33.48;96447.63;4888634;29;20640;-74
2023/03/26 09:13:37;;;;;;;0.97;0.80;;;;;;;16.63;34.38;96442.44;4894600;29;20689;-78
2023/03/26 09:16:26;;;;;;;1.43;0.87;;;;;;;16.62;34.25;96466.91;4893031;29;20244;-76
2023/03/26 09:19:20;;;;;;;1.00;0.90;;;;;;;16.56;34.40;96451.72;4896749;29;20679;-74
2023/03/26 09:22:29;;;;;;;1.20;0.90;;;;;;;16.66;34.00;96455.25;4873052;29;20203;-74
2023/03/26 09:24:56;;;;;;;1.93;1.20;;;;;;;16.78;34.50;96459.50;4879756;29;20205;-75
2023/03/26 09:28:00;;;;;;;5.03;1.30;;;;;;;16.92;34.10;96454.00;4880808;29;20697;-80
2023/03/26 09:30:37;;;;;;;3.30;1.10;;;;;;;16.78;34.20;96447.28;4903467;29;20199;-74
2023/03/26 09:33:31;;;;;;;1.07;0.97;;;;;;;16.54;35.02;96469.31;4914456;29;20263;-74
2023/03/26 09:36:08;;;;;;;1.17;1.00;;;;;;;16.35;35.11;96469.03;4911528;29;20915;-73
2023/03/26 09:38:42;;;;;;;1.13;1.03;;;;;;;16.54;35.24;96475.38;4912547;29;20289;-73
2023/03/26 09:41:16;;;;;;;1.07;0.90;;;;;;;16.75;34.25;96470.25;4896413;29;20890;-79
2023/03/26 09:44:05;;;;;;;1.37;1.00;;;;;;;16.70;34.33;96459.28;4897315;29;20262;-77
2023/03/26 09:47:05;;;;;;;0.97;0.80;;;;;;;16.95;34.82;96459.00;4894681;29;20641;-74
2023/03/26 09:49:44;;;;;;;1.80;0.80;;;;;;;16.97;34.94;96459.72;4878534;29;20234;-85
2023/03/26 09:52:32;;;;;;;0.80;0.80;;;;;;;16.95;34.49;96449.38;4912261;29;20196;-79
2023/03/26 09:55:13;;;;;;;1.83;1.00;;;;;;;17.22;34.66;96446.31;4910657;29;20281;-75
2023/03/26 09:58:04;;;;;;;1.83;1.70;;;;;;;17.48;34.02;96455.47;4919135;29;20199;-74
2023/03/26 10:00:41;;;;;;;2.03;0.90;;;;;;;17.52;33.39;96474.41;4900600;29;20284;-74
2023/03/26 10:03:26;;;;;;;1.53;0.90;;;;;;;17.32;33.15;96468.16;4911397;29;20320;-73
2023/03/26 10:06:36;;;;;;;1.50;0.87;;;;;;;17.05;32.29;96480.84;4909819;29;20207;-74
2023/03/26 10:09:37;;;;;;;1.37;0.70;;;;;;;16.96;32.22;96461.50;4924265;29;20211;-74
2023/03/26 10:12:42;;;;;;;1.47;0.90;;;;;;;17.28;32.92;96461.53;4922236;29;20610;-74
2023/03/26 10:15:53;;;;;;;1.10;0.70;;;;;;;17.46;33.25;96461.78;4912894;29;20635;-74
2023/03/26 10:19:00;;;;;;;1.40;0.90;;;;;;;17.56;33.41;96460.94;4909777;29;20203;-79
2023/03/26 10:21:56;;;;;;;1.70;1.10;;;;;;;17.83;32.94;96447.34;4898032;29;20243;-77
2023/03/26 10:24:58;;;;;;;1.53;0.70;;;;;;;17.85;33.83;96450.66;4910467;29;20256;-76
2023/03/26 10:27:59;;;;;;;0.70;0.67;;;;;;;17.70;33.55;96431.81;4911351;29;20294;-80
2023/03/26 10:31:04;;;;;;;2.97;1.10;;;;;;;17.59;32.42;96447.59;4892652;29;20212;-78
2023/03/26 10:34:01;;;;;;;0.93;0.80;;;;;;;17.34;34.99;96439.25;4893566;29;20268;-79
2023/03/26 10:36:50;;;;;;;1.03;0.80;;;;;;;17.56;35.82;96432.13;4900934;29;20208;-79
2023/03/26 10:39:49;;;;;;;0.70;0.70;;;;;;;17.60;36.15;96425.69;4904188;29;20676;-75
2023/03/26 10:42:53;;;;;;;1.03;0.70;;;;;;;17.49;35.11;96422.28;4924967;29;20299;-75
2023/03/26 10:45:25;;;;;;;0.77;0.73;;;;;;;17.09;35.11;96412.47;4912356;29;20671;-75
2023/03/26 10:48:34;;;;;;;1.17;0.90;;;;;;;16.82;35.84;96430.38;4902350;29;20264;-80
2023/03/26 10:51:33;;;;;;;0.80;0.70;;;;;;;17.14;35.82;96401.63;4855164;29;20303;-79
2023/03/26 10:54:10;;;;;;;1.77;0.87;;;;;;;17.21;35.56;96400.16;4911855;29;20234;-73
2023/03/26 10:56:42;;;;;;;2.17;1.10;;;;;;;17.34;35.69;96390.34;4902260;29;20194;-78
2023/03/26 10:59:15;;;;;;;0.83;0.70;;;;;;;17.49;34.62;96391.72;4903109;29;20204;-74
2023/03/26 11:02:11;;;;;;;1.30;0.70;;;;;;;17.58;34.50;96374.41;4877528;29;20632;-78
2023/03/26 11:04:40;;;;;;;1.87;0.70;;;;;;;17.55;34.38;96399.06;4892042;29;20225;-77
2023/03/26 11:07:45;;;;;;;1.90;0.60;;;;;;;17.21;32.96;96366.13;4894814;29;20192;-73
2023/03/26 11:10:58;;;;;;;15.27;4.07;;;;;;;17.15;33.86;96323.94;4870309;29;20195;-74
2023/03/26 11:14:00;;;;;;;3.03;0.70;;;;;;;17.83;32.78;96358.28;4892008;29;20711;-79
2023/03/26 11:17:31;;;;;;;0.83;0.70;;;;;;;17.50;33.39;96382.06;4900609;29;20318;-78
2023/03/26 11:21:08;;;;;;;0.50;0.50;;;;;;;17.36;33.18;96380.56;4851342;29;20210;-75
2023/03/26 11:24:04;;;;;;;1.47;0.80;;;;;;;17.69;32.49;96382.19;4912282;29;21134;-76
2023/03/26 11:26:56;;;;;;;1.70;0.80;;;;;;;17.78;32.63;96387.47;4909964;29;20310;-75
2023/03/26 11:30:02;;;;;;;0.90;0.90;;;;;;;17.48;32.99;96374.31;4909626;29;20200;-79
2023/03/26 11:32:47;;;;;;;1.30;1.10;;;;;;;17.78;34.19;96374.38;4896076;29;20186;-81
2023/03/26 11:35:31;;;;;;;0.70;0.70;;;;;;;17.83;33.13;96372.19;4894832;29;20651;-79
2023/03/26 11:38:36;;;;;;;1.13;0.80;;;;;;;18.13;32.00;96370.53;4894046;29;20223;-81
2023/03/26 11:41:17;;;;;;;0.70;0.57;;;;;;;18.14;31.96;96356.47;4895423;29;20289;-82
2023/03/26 11:44:25;;;;;;;0.57;0.53;;;;;;;18.07;32.50;96356.19;4911935;29;20227;-82
2023/03/26 11:47:00;;;;;;;0.93;0.70;;;;;;;18.32;30.88;96341.78;4907747;29;20283;-80
2023/03/26 11:49:28;;;;;;;2.50;1.20;;;;;;;18.54;32.10;96339.78;4904126;29;20295;-80
2023/03/26 11:51:55;;;;;;;1.23;0.90;;;;;;;18.37;31.77;96300.25;4910977;29;20275;-80
2023/03/26 11:54:22;;;;;;;1.00;0.80;;;;;;;18.62;30.89;96339.94;4895326;29;20204;-76
2023/03/26 11:56:57;;;;;;;0.90;0.63;;;;;;;18.29;30.27;96340.25;4911181;29;20704;-80
2023/03/26 11:59:56;;;;;;;2.93;0.70;;;;;;;18.35;30.69;96336.25;4910751;29;21209;-80
2023/03/26 12:02:47;;;;;;;2.20;1.10;;;;;;;18.40;30.98;96326.19;4917352;29;20213;-81
2023/03/26 12:05:18;;;;;;;1.33;0.80;;;;;;;18.21;30.56;96342.72;4931013;29;20302;-79
2023/03/26 12:08:00;;;;;;;0.97;0.80;;;;;;;17.90;30.16;96320.13;4913192;29;20622;-80
2023/03/26 12:10:36;;;;;;;0.53;0.53;;;;;;;17.87;29.22;96331.69;4931154;29;20204;-81
2023/03/26 12:13:40;;;;;;;1.30;1.10;;;;;;;17.97;30.30;96334.34;4913291;29;20199;-76
2023/03/26 12:16:11;;;;;;;1.00;0.90;;;;;;;18.03;29.70;96325.97;4931781;29;20199;-76
2023/03/26 12:18:42;;;;;;;0.97;0.87;;;;;;;18.17;30.43;96330.84;4931554;29;20191;-77
2023/03/26 12:21:18;;;;;;;2.40;1.03;;;;;;;18.22;30.25;96338.28;4929788;29;20726;-76
2023/03/26 12:23:57;;;;;;;0.77;0.77;;;;;;;18.22;30.28;96326.00;4920708;29;20226;-75
2023/03/26 12:26:32;;;;;;;1.10;0.80;;;;;;;18.25;30.03;96340.66;4931873;29;20242;-74
2023/03/26 12:29:06;;;;;;;1.20;0.83;;;;;;;18.14;29.85;96325.84;4930679;29;20188;-80
2023/03/26 12:32:02;;;;;;;1.23;0.87;;;;;;;18.16;30.29;96333.56;4930416;29;20659;-74
2023/03/26 12:34:38;;;;;;;1.40;0.80;;;;;;;18.23;30.07;96334.69;4929884;29;20192;-75
2023/03/26 12:37:26;;;;;;;0.90;0.80;;;;;;;18.46;30.02;96321.28;4930948;29;20190;-74
2023/03/26 12:40:25;;;;;;;1.17;0.90;;;;;;;18.55;30.06;96340.59;4929520;29;20684;-77